createdAt,value
2018-11-07T00:01:04.645Z,20.17
2018-11-07T00:03:36.433Z,18.92
2018-11-07T00:06:11.977Z,20.35
2018-11-07T00:08:42.869Z,20.37
2018-11-07T00:11:13.653Z,19.05
2018-11-07T00:13:47.849Z,20.65
2018-11-07T00:16:19.664Z,19.15
2018-11-07T00:18:49.441Z,19.75
2018-11-07T00:21:19.240Z,21.00
2018-11-07T00:23:57.241Z,20.65
2018-11-07T00:26:29.124Z,19.80
2018-11-07T00:28:59.985Z,19.73
2018-11-07T00:31:31.825Z,20.05
2018-11-07T00:34:01.839Z,20.80
2018-11-07T00:36:31.754Z,20.60
2018-11-07T00:39:01.638Z,21.52
2018-11-07T00:41:35.561Z,21.40
2018-11-07T00:44:15.245Z,21.25
2018-11-07T00:46:51.857Z,20.65
2018-11-07T00:49:23.133Z,20.62
2018-11-07T00:51:56.965Z,21.33
2018-11-07T00:54:27.772Z,20.40
2018-11-07T00:57:02.937Z,19.87
2018-11-07T00:59:37.057Z,20.05
2018-11-07T01:02:06.877Z,21.02
2018-11-07T01:04:36.789Z,19.80
2018-11-07T01:07:06.712Z,20.57
2018-11-07T01:09:36.809Z,21.10
2018-11-07T01:12:07.552Z,20.02
2018-11-07T01:14:43.117Z,21.52
2018-11-07T01:17:12.877Z,22.95
2018-11-07T01:19:43.832Z,19.17
2018-11-07T01:22:13.630Z,20.02
2018-11-07T01:24:43.457Z,20.12
2018-11-07T01:27:18.658Z,22.35
2018-11-07T01:29:52.373Z,23.18
2018-11-07T01:32:22.229Z,20.48
2018-11-07T01:34:52.164Z,17.75
2018-11-07T01:37:22.944Z,20.82
2018-11-07T01:39:55.909Z,20.30
2018-11-07T01:42:35.387Z,19.77
2018-11-07T01:45:07.709Z,19.00
2018-11-07T01:47:37.684Z,19.15
2018-11-07T01:50:12.857Z,18.62
2018-11-07T01:52:43.733Z,18.57
2018-11-07T01:55:14.532Z,18.73
2018-11-07T01:57:44.389Z,17.10
2018-11-07T02:00:15.241Z,21.10
2018-11-07T02:02:46.083Z,21.10
2018-11-07T02:05:16.897Z,19.32
2018-11-07T02:07:56.352Z,22.10
2018-11-07T02:10:26.281Z,28.35
2018-11-07T02:12:57.060Z,26.42
2018-11-07T02:15:27.905Z,20.00
2018-11-07T02:18:01.095Z,20.25
2018-11-07T02:20:36.445Z,18.10
2018-11-07T02:23:06.344Z,14.85
2018-11-07T02:25:36.188Z,16.40
2018-11-07T02:28:06.033Z,15.72
2018-11-07T02:30:35.893Z,19.75
2018-11-07T02:33:05.714Z,18.50
2018-11-07T02:35:36.533Z,18.23
2018-11-07T02:38:08.372Z,21.30
2018-11-07T02:40:58.857Z,23.35
2018-11-07T02:43:34.164Z,22.45
2018-11-07T02:46:04.091Z,24.75
2018-11-07T02:48:33.977Z,18.80
2018-11-07T02:51:03.809Z,26.73
2018-11-07T02:53:34.674Z,19.85
2018-11-07T02:56:04.425Z,17.70
2018-11-07T02:58:34.257Z,19.55
2018-11-07T03:01:04.318Z,18.17
2018-11-07T03:03:33.953Z,17.62
2018-11-07T03:06:03.857Z,17.87
2018-11-07T03:08:34.741Z,17.25
2018-11-07T03:11:04.829Z,15.55
2018-11-07T03:13:34.624Z,15.75
2018-11-07T03:16:05.945Z,18.40
2018-11-07T03:18:37.737Z,17.15
2018-11-07T03:21:19.673Z,18.92
2018-11-07T03:23:55.205Z,16.60
2018-11-07T03:26:25.101Z,18.57
2018-11-07T03:28:54.912Z,18.55
2018-11-07T03:31:25.009Z,19.37
2018-11-07T03:33:55.864Z,16.10
2018-11-07T03:36:26.697Z,22.52
2018-11-07T03:38:56.505Z,20.50
2018-11-07T03:41:30.389Z,20.60
2018-11-07T03:44:05.208Z,20.92
2018-11-07T03:46:38.207Z,21.37
2018-11-07T03:49:09.029Z,19.73
2018-11-07T03:51:39.913Z,14.15
2018-11-07T03:54:10.749Z,14.45
2018-11-07T03:56:44.427Z,15.43
2018-11-07T03:59:15.297Z,15.18
2018-11-07T04:01:51.741Z,14.83
2018-11-07T04:04:22.621Z,16.77
2018-11-07T04:06:52.413Z,19.27
2018-11-07T04:09:32.165Z,19.70
2018-11-07T04:12:05.708Z,20.27
2018-11-07T04:14:40.695Z,19.82
2018-11-07T04:17:11.504Z,18.15
2018-11-07T04:19:42.381Z,18.87
2018-11-07T04:22:13.217Z,23.10
2018-11-07T04:24:45.061Z,21.02
2018-11-07T04:27:14.948Z,21.52
2018-11-07T04:29:51.485Z,20.30
2018-11-07T04:32:22.485Z,21.42
2018-11-07T04:34:58.926Z,19.45
2018-11-07T04:37:32.346Z,19.00
2018-11-07T04:40:07.580Z,19.35
2018-11-07T04:42:37.545Z,21.02
2018-11-07T04:45:07.585Z,21.42
2018-11-07T04:47:38.465Z,21.73
2018-11-07T04:50:11.377Z,24.47
2018-11-07T04:52:41.280Z,23.80
2018-11-07T04:55:12.176Z,24.55
2018-11-07T04:57:42.093Z,23.20
2018-11-07T05:00:13.916Z,22.27
2018-11-07T05:02:44.709Z,27.40
2018-11-07T05:05:15.901Z,24.52
2018-11-07T05:07:45.746Z,26.93
2018-11-07T05:10:20.444Z,25.50
2018-11-07T05:12:51.293Z,23.38
2018-11-07T05:15:22.137Z,23.05
2018-11-07T05:17:51.965Z,22.17
2018-11-07T05:20:22.765Z,23.80
2018-11-07T05:22:53.929Z,21.37
2018-11-07T05:25:28.757Z,23.02
2018-11-07T05:27:58.661Z,22.95
2018-11-07T05:30:28.445Z,23.35
2018-11-07T05:32:58.349Z,20.08
2018-11-07T05:35:28.240Z,23.05
2018-11-07T05:37:59.817Z,20.10
2018-11-07T05:40:30.713Z,23.57
2018-11-07T05:43:06.001Z,23.07
2018-11-07T05:45:38.817Z,21.35
2018-11-07T05:48:08.721Z,22.65
2018-11-07T05:50:39.577Z,20.77
2018-11-07T05:53:09.441Z,20.43
2018-11-07T05:55:39.281Z,20.60
2018-11-07T05:58:12.341Z,26.12
2018-11-07T06:00:44.269Z,23.12
2018-11-07T06:03:17.093Z,21.25
2018-11-07T06:05:50.001Z,22.75
2018-11-07T06:08:19.771Z,21.07
2018-11-07T06:10:50.581Z,19.65
2018-11-07T06:13:20.358Z,21.10
2018-11-07T06:15:50.241Z,20.48
2018-11-07T06:18:20.027Z,20.05
2018-11-07T06:20:50.138Z,20.48
2018-11-07T06:23:32.309Z,20.92
2018-11-07T06:26:02.153Z,23.95
2018-11-07T06:28:32.026Z,23.57
2018-11-07T06:31:06.661Z,24.82
2018-11-07T06:33:37.593Z,26.27
2018-11-07T06:36:07.377Z,25.97
2018-11-07T06:38:40.305Z,25.25
2018-11-07T06:41:11.173Z,21.40
2018-11-07T06:43:42.581Z,22.25
2018-11-07T06:46:12.481Z,22.70
2018-11-07T06:48:44.325Z,23.50
2018-11-07T06:51:22.093Z,22.95
2018-11-07T06:53:53.011Z,24.55
2018-11-07T06:56:25.805Z,25.43
2018-11-07T06:58:56.790Z,25.00
2018-11-07T07:01:27.634Z,25.15
2018-11-07T07:04:00.521Z,26.23
2018-11-07T07:06:32.317Z,25.92
2018-11-07T07:09:05.169Z,26.40
2018-11-07T07:11:36.965Z,23.55
2018-11-07T07:14:10.185Z,23.70
2018-11-07T07:16:40.031Z,23.50
2018-11-07T07:19:15.165Z,21.35
2018-11-07T07:21:45.967Z,21.45
2018-11-07T07:24:15.845Z,20.27
2018-11-07T07:26:52.309Z,22.52
2018-11-07T07:29:22.137Z,20.02
2018-11-07T07:31:51.898Z,21.90
2018-11-07T07:34:21.762Z,18.05
2018-11-07T07:36:53.593Z,20.15
2018-11-07T07:39:23.501Z,21.77
2018-11-07T07:41:53.394Z,21.42
2018-11-07T07:44:26.384Z,22.17
2018-11-07T07:46:56.200Z,20.85
2018-11-07T07:49:27.167Z,22.90
2018-11-07T07:51:58.837Z,18.50
2018-11-07T07:54:28.690Z,16.00
2018-11-07T07:57:01.770Z,16.97
2018-11-07T07:59:31.562Z,15.15
2018-11-07T08:02:04.790Z,15.00
2018-11-07T08:04:36.733Z,14.97
2018-11-07T08:07:07.627Z,14.17
2018-11-07T08:09:40.606Z,15.53
2018-11-07T08:12:12.430Z,15.43
2018-11-07T08:14:42.262Z,18.60
2018-11-07T08:17:16.254Z,18.97
2018-11-07T08:19:47.085Z,25.53
2018-11-07T08:22:18.314Z,25.27
2018-11-07T08:24:51.742Z,24.70
2018-11-07T08:27:21.674Z,22.60
2018-11-07T08:29:51.462Z,19.30
2018-11-07T08:32:22.282Z,17.97
2018-11-07T08:34:53.097Z,21.10
2018-11-07T08:37:22.884Z,20.00
2018-11-07T08:39:53.770Z,16.00
2018-11-07T08:42:31.582Z,15.50
2018-11-07T08:45:03.401Z,14.40
2018-11-07T08:47:33.217Z,15.80
2018-11-07T08:50:04.649Z,15.50
2018-11-07T08:52:40.070Z,16.27
2018-11-07T08:55:11.877Z,17.40
2018-11-07T08:57:42.597Z,16.23
2018-11-07T09:00:16.087Z,14.00
2018-11-07T09:02:51.170Z,16.53
2018-11-07T09:05:21.848Z,15.07
2018-11-07T09:07:51.626Z,16.00
2018-11-07T09:10:24.234Z,16.10
2018-11-07T09:13:01.377Z,16.67
2018-11-07T09:15:44.602Z,16.53
2018-11-07T09:18:14.478Z,18.50
2018-11-07T09:20:45.354Z,18.53
2018-11-07T09:23:15.269Z,17.90
2018-11-07T09:25:47.025Z,19.90
2018-11-07T09:28:16.898Z,16.60
2018-11-07T09:30:49.826Z,17.77
2018-11-07T09:33:19.718Z,17.03
2018-11-07T09:35:51.590Z,17.50
2018-11-07T09:38:21.462Z,16.37
2018-11-07T09:40:56.645Z,16.27
2018-11-07T09:43:26.518Z,15.70
2018-11-07T09:45:56.377Z,16.43
2018-11-07T09:48:26.247Z,16.60
2018-11-07T09:51:00.682Z,17.90
2018-11-07T09:53:31.516Z,18.03
2018-11-07T09:56:02.302Z,19.20
2018-11-07T09:58:34.109Z,17.50
2018-11-07T10:01:06.184Z,19.97
2018-11-07T10:03:36.006Z,21.03
2018-11-07T10:06:05.965Z,19.97
2018-11-07T10:08:36.818Z,19.80
2018-11-07T10:11:07.102Z,21.23
2018-11-07T10:13:36.930Z,20.77
2018-11-07T10:16:07.722Z,18.33
2018-11-07T10:18:38.529Z,18.33
2018-11-07T10:21:08.397Z,17.60
2018-11-07T10:23:39.741Z,18.37
2018-11-07T10:26:11.890Z,16.80
2018-11-07T10:28:42.122Z,18.80
2018-11-07T10:31:11.714Z,16.70
2018-11-07T10:33:41.613Z,15.47
2018-11-07T10:36:12.670Z,17.67
2018-11-07T10:38:43.757Z,17.10
2018-11-07T10:41:13.814Z,16.10
2018-11-07T10:43:46.621Z,18.23
2018-11-07T10:46:16.517Z,17.37
2018-11-07T10:48:54.417Z,16.03
2018-11-07T10:51:29.525Z,17.97
2018-11-07T10:53:59.314Z,18.10
2018-11-07T10:56:31.042Z,18.57
2018-11-07T10:59:06.826Z,20.53
2018-11-07T11:01:54.022Z,18.70
2018-11-07T11:04:29.006Z,19.47
2018-11-07T11:07:01.923Z,19.87
2018-11-07T11:09:32.697Z,20.17
2018-11-07T11:12:03.450Z,17.87
2018-11-07T11:14:33.298Z,18.27
2018-11-07T11:17:03.631Z,19.30
2018-11-07T11:19:36.497Z,17.40
2018-11-07T11:22:06.838Z,19.00
2018-11-07T11:24:37.638Z,17.87
2018-11-07T11:27:07.451Z,20.50
2018-11-07T11:29:37.242Z,18.43
2018-11-07T11:32:08.718Z,20.40
2018-11-07T11:34:40.583Z,20.83
2018-11-07T11:37:10.382Z,19.57
2018-11-07T11:39:41.142Z,21.70
2018-11-07T11:42:11.957Z,23.30
2018-11-07T11:44:41.833Z,24.03
2018-11-07T11:47:12.606Z,21.73
2018-11-07T11:49:43.480Z,21.40
2018-11-07T11:52:13.269Z,21.80
2018-11-07T11:54:43.166Z,20.80
2018-11-07T11:57:13.140Z,18.47
2018-11-07T11:59:45.935Z,21.40
2018-11-07T12:02:17.552Z,18.13
2018-11-07T12:04:52.625Z,18.00
2018-11-07T12:07:23.634Z,17.90
2018-11-07T12:09:53.665Z,18.67
2018-11-07T12:12:26.842Z,18.57
2018-11-07T12:15:02.153Z,18.50
2018-11-07T12:17:32.979Z,16.63
2018-11-07T12:20:02.826Z,17.40
2018-11-07T12:22:32.678Z,17.67
2018-11-07T12:25:02.497Z,17.30
2018-11-07T12:27:33.282Z,17.77
2018-11-07T12:30:08.248Z,17.47
2018-11-07T12:32:41.534Z,17.40
2018-11-07T12:35:15.743Z,16.73
2018-11-07T12:37:49.017Z,17.00
2018-11-07T12:40:19.254Z,16.97
2018-11-07T12:42:50.145Z,18.63
2018-11-07T12:45:19.939Z,16.50
2018-11-07T12:47:49.790Z,16.60
2018-11-07T12:50:23.788Z,17.60
2018-11-07T12:52:54.646Z,19.57
2018-11-07T12:55:24.498Z,17.47
2018-11-07T12:57:56.384Z,18.70
2018-11-07T13:00:30.974Z,18.97
2018-11-07T13:03:01.885Z,20.60
2018-11-07T13:05:35.874Z,19.73
2018-11-07T13:08:06.810Z,21.30
2018-11-07T13:10:36.706Z,20.30
2018-11-07T13:13:07.574Z,19.40
2018-11-07T13:15:54.488Z,20.30
2018-11-07T13:18:24.378Z,20.67
2018-11-07T13:20:59.718Z,20.23
2018-11-07T13:23:29.610Z,20.27
2018-11-07T13:25:59.406Z,19.67
2018-11-07T13:28:29.302Z,21.60
2018-11-07T13:30:59.172Z,18.90
2018-11-07T13:33:28.963Z,19.30
2018-11-07T13:35:58.782Z,19.00
2018-11-07T13:38:30.940Z,19.27
2018-11-07T13:41:01.508Z,16.50
2018-11-07T13:43:31.438Z,18.87
2018-11-07T13:46:05.275Z,18.30
2018-11-07T13:48:35.934Z,19.07
2018-11-07T13:51:05.994Z,18.93
2018-11-07T13:53:35.794Z,19.00
2018-11-07T13:56:10.498Z,19.00
2018-11-07T13:58:41.297Z,19.57
2018-11-07T14:01:12.134Z,20.77
2018-11-07T14:03:41.970Z,20.10
2018-11-07T14:06:11.919Z,21.60
2018-11-07T14:08:41.770Z,21.90
2018-11-07T14:11:11.715Z,20.80
2018-11-07T14:13:41.603Z,21.83
2018-11-07T14:16:12.045Z,21.70
2018-11-07T14:18:45.548Z,22.97
2018-11-07T14:21:15.495Z,22.90
2018-11-07T14:23:54.859Z,23.60
2018-11-07T14:26:24.678Z,22.90
2018-11-07T14:28:54.494Z,23.67
2018-11-07T14:31:26.395Z,23.40
2018-11-07T14:33:56.359Z,23.50
2018-11-07T14:36:28.163Z,25.07
2018-11-07T14:38:58.062Z,23.30
2018-11-07T14:41:31.768Z,25.83
2018-11-07T14:44:02.775Z,22.47
2018-11-07T14:46:36.614Z,24.67
2018-11-07T14:49:07.363Z,24.50
2018-11-07T14:51:39.222Z,26.20
2018-11-07T14:54:10.047Z,26.10
2018-11-07T14:56:43.922Z,25.03
2018-11-07T14:59:18.779Z,26.10
2018-11-07T15:01:54.239Z,25.00
2018-11-07T15:04:27.851Z,25.63
2018-11-07T15:07:08.007Z,25.27
2018-11-07T15:09:38.963Z,24.27
2018-11-07T15:12:08.815Z,25.60
2018-11-07T15:14:39.675Z,25.30
2018-11-07T15:17:09.707Z,27.00
2018-11-07T15:19:39.603Z,28.53
2018-11-07T15:22:09.546Z,25.30
2018-11-07T15:24:40.502Z,27.03
2018-11-07T15:27:10.467Z,28.05
2018-11-07T15:29:40.638Z,29.65
2018-11-07T15:32:10.454Z,30.30
2018-11-07T15:34:40.342Z,27.90
2018-11-07T15:37:10.262Z,29.27
2018-11-07T15:39:41.145Z,29.45
2018-11-07T15:42:11.111Z,31.90
2018-11-07T15:44:40.999Z,31.35
2018-11-07T15:47:10.994Z,32.15
2018-11-07T15:49:41.894Z,31.70
2018-11-07T15:52:11.902Z,34.80
2018-11-07T15:54:41.687Z,32.83
2018-11-07T15:57:11.603Z,33.33
2018-11-07T15:59:41.389Z,32.23
2018-11-07T16:02:14.918Z,33.83
2018-11-07T16:04:45.723Z,33.15
2018-11-07T16:07:18.623Z,36.68
2018-11-07T16:09:48.515Z,34.98
2018-11-07T16:12:18.690Z,36.10
2018-11-07T16:14:48.575Z,37.23
2018-11-07T16:17:18.459Z,37.48
2018-11-07T16:19:54.027Z,37.88
2018-11-07T16:22:23.782Z,37.60
2018-11-07T16:24:54.583Z,38.20
2018-11-07T16:27:30.378Z,37.58
2018-11-07T16:30:03.855Z,34.75
2018-11-07T16:32:33.946Z,37.73
2018-11-07T16:35:04.067Z,36.83
2018-11-07T16:37:42.839Z,34.58
2018-11-07T16:40:14.295Z,35.03
2018-11-07T16:42:44.602Z,39.00
2018-11-07T16:45:18.594Z,38.23
2018-11-07T16:47:52.148Z,38.00
2018-11-07T16:50:23.834Z,37.28
2018-11-07T16:52:53.736Z,37.58
2018-11-07T16:55:23.611Z,37.23
2018-11-07T16:57:53.426Z,40.15
2018-11-07T17:00:31.541Z,39.33
2018-11-07T17:03:01.618Z,47.13
2018-11-07T17:05:31.450Z,50.20
2018-11-07T17:08:08.278Z,46.00
2018-11-07T17:10:43.630Z,39.78
2018-11-07T17:13:31.431Z,40.52
2018-11-07T17:16:03.290Z,40.43
2018-11-07T17:18:49.234Z,38.20
2018-11-07T17:21:33.182Z,38.95
2018-11-07T17:24:09.602Z,39.42
2018-11-07T17:26:39.421Z,38.92
2018-11-07T17:29:09.243Z,36.85
2018-11-07T17:31:39.195Z,38.20
2018-11-07T17:34:09.938Z,36.48
2018-11-07T17:36:41.834Z,38.55
2018-11-07T17:39:13.710Z,38.45
2018-11-07T17:41:45.641Z,38.10
2018-11-07T17:44:25.507Z,39.10
2018-11-07T17:46:55.434Z,37.63
2018-11-07T17:49:25.222Z,36.30
2018-11-07T17:51:56.062Z,37.38
2018-11-07T17:54:26.882Z,38.17
2018-11-07T17:57:08.534Z,36.75
2018-11-07T17:59:38.670Z,37.75
2018-11-07T18:02:09.446Z,44.70
2018-11-07T18:04:40.210Z,41.63
2018-11-07T18:07:10.002Z,43.90
2018-11-07T18:09:39.901Z,42.70
2018-11-07T18:12:10.430Z,42.83
2018-11-07T18:14:40.554Z,48.80
2018-11-07T18:17:10.470Z,54.77
2018-11-07T18:19:45.546Z,44.42
2018-11-07T18:22:21.890Z,60.08
2018-11-07T18:24:56.264Z,43.40
2018-11-07T18:27:27.283Z,42.53
2018-11-07T18:29:58.043Z,50.15
2018-11-07T18:32:28.922Z,43.45
2018-11-07T18:35:00.058Z,47.78
2018-11-07T18:37:29.974Z,45.28
2018-11-07T18:40:00.863Z,45.17
2018-11-07T18:42:30.706Z,47.83
2018-11-07T18:45:00.526Z,35.63
2018-11-07T18:47:30.334Z,40.63
2018-11-07T18:50:01.183Z,44.03
2018-11-07T18:52:31.002Z,42.43
2018-11-07T18:55:01.933Z,41.92
2018-11-07T18:57:31.898Z,40.05
2018-11-07T19:00:04.350Z,35.30
2018-11-07T19:02:36.246Z,47.17
2018-11-07T19:05:10.132Z,45.12
2018-11-07T19:07:59.882Z,39.40
2018-11-07T19:10:48.658Z,41.02
2018-11-07T19:13:18.472Z,42.10
2018-11-07T19:15:49.375Z,45.03
2018-11-07T19:18:23.650Z,42.35
2018-11-07T19:20:54.578Z,63.65
2018-11-07T19:23:24.390Z,82.20
2018-11-07T19:25:55.482Z,68.62
2018-11-07T19:28:32.747Z,72.70
2018-11-07T19:31:02.650Z,63.90
2018-11-07T19:33:34.442Z,64.85
2018-11-07T19:36:07.746Z,77.67
2018-11-07T19:38:37.695Z,64.92
2018-11-07T19:41:08.581Z,47.25
2018-11-07T19:43:40.468Z,48.63
2018-11-07T19:46:10.450Z,51.53
2018-11-07T19:48:46.006Z,55.50
2018-11-07T19:51:16.058Z,47.45
2018-11-07T19:53:50.658Z,47.20
2018-11-07T19:56:24.677Z,46.75
2018-11-07T19:58:59.498Z,42.50
2018-11-07T20:01:35.158Z,43.58
2018-11-07T20:04:05.725Z,42.70
2018-11-07T20:06:37.714Z,40.03
2018-11-07T20:09:11.298Z,49.05
2018-11-07T20:11:42.450Z,42.98
2018-11-07T20:14:13.274Z,42.67
2018-11-07T20:16:46.518Z,45.60
2018-11-07T20:19:18.362Z,45.40
2018-11-07T20:21:50.718Z,47.25
2018-11-07T20:24:24.202Z,44.48
2018-11-07T20:27:05.894Z,42.53
2018-11-07T20:29:43.521Z,42.40
2018-11-07T20:32:15.318Z,44.73
2018-11-07T20:34:51.142Z,41.55
2018-11-07T20:37:21.990Z,41.58
2018-11-07T20:39:52.862Z,40.03
2018-11-07T20:42:22.826Z,43.63
2018-11-07T20:44:57.754Z,45.40
2018-11-07T20:47:27.674Z,47.20
2018-11-07T20:49:57.599Z,44.30
2018-11-07T20:52:28.430Z,34.58
2018-11-07T20:55:08.282Z,38.92
2018-11-07T20:57:39.135Z,34.53
2018-11-07T21:00:12.704Z,37.98
2018-11-07T21:02:45.170Z,40.60
2018-11-07T21:05:27.354Z,34.63
2018-11-07T21:08:02.674Z,34.40
2018-11-07T21:10:35.350Z,33.83
2018-11-07T21:13:05.410Z,34.10
2018-11-07T21:15:35.306Z,34.85
2018-11-07T21:18:06.094Z,34.90
2018-11-07T21:20:36.390Z,38.00
2018-11-07T21:23:07.622Z,39.53
2018-11-07T21:25:43.023Z,37.00
2018-11-07T21:28:14.202Z,39.42
2018-11-07T21:30:46.392Z,36.48
2018-11-07T21:33:29.786Z,30.92
2018-11-07T21:36:05.666Z,31.20
2018-11-07T21:38:37.927Z,29.02
2018-11-07T21:41:07.910Z,27.95
2018-11-07T21:43:37.841Z,27.60
2018-11-07T21:46:11.241Z,30.45
2018-11-07T21:48:46.323Z,30.80
2018-11-07T21:51:20.087Z,31.55
2018-11-07T21:53:54.142Z,28.65
2018-11-07T21:56:31.826Z,28.02
2018-11-07T21:59:11.578Z,27.58
2018-11-07T22:01:44.914Z,26.85
2018-11-07T22:04:17.998Z,27.58
2018-11-07T22:06:55.478Z,29.05
2018-11-07T22:09:25.386Z,28.62
2018-11-07T22:11:57.359Z,30.25
2018-11-07T22:14:27.238Z,26.37
2018-11-07T22:16:57.982Z,28.95
2018-11-07T22:19:28.878Z,30.10
2018-11-07T22:21:58.771Z,29.32
2018-11-07T22:24:28.666Z,27.62
2018-11-07T22:27:06.243Z,30.05
2018-11-07T22:29:39.811Z,30.95
2018-11-07T22:32:11.615Z,28.42
2018-11-07T22:34:43.003Z,30.60
2018-11-07T22:37:16.569Z,29.05
2018-11-07T22:39:47.323Z,28.73
2018-11-07T22:42:17.226Z,32.78
2018-11-07T22:44:47.115Z,34.92
2018-11-07T22:47:17.947Z,44.45
2018-11-07T22:50:01.643Z,42.85
2018-11-07T22:52:32.439Z,30.05
2018-11-07T22:55:02.336Z,30.72
2018-11-07T22:57:33.175Z,26.70
2018-11-07T23:00:03.024Z,27.52
2018-11-07T23:02:34.848Z,23.25
2018-11-07T23:05:06.068Z,22.20
2018-11-07T23:07:35.939Z,22.17
2018-11-07T23:10:11.896Z,22.90
2018-11-07T23:12:43.760Z,21.15
2018-11-07T23:15:18.942Z,21.45
2018-11-07T23:17:48.767Z,22.02
2018-11-07T23:20:24.157Z,21.40
2018-11-07T23:22:55.043Z,20.25
2018-11-07T23:25:24.887Z,19.92
2018-11-07T23:28:02.330Z,24.82
2018-11-07T23:30:39.194Z,21.45
2018-11-07T23:33:09.059Z,19.37
2018-11-07T23:35:39.759Z,22.15
2018-11-07T23:38:11.591Z,21.80
2018-11-07T23:40:42.499Z,23.00
2018-11-07T23:43:20.503Z,23.18
2018-11-07T23:45:52.327Z,27.15
2018-11-07T23:48:22.220Z,28.00
2018-11-07T23:50:57.731Z,31.05
2018-11-07T23:53:28.627Z,28.02
2018-11-07T23:56:02.859Z,34.88
2018-11-07T23:58:35.819Z,23.83
